createdAt,value
2022-09-24T00:05:37.831Z,100434.88
2022-09-24T00:08:04.355Z,100424.16
2022-09-24T00:10:30.852Z,100430.09
2022-09-24T00:12:57.375Z,100426.25
2022-09-24T00:15:23.999Z,100431.66
2022-09-24T00:17:50.569Z,100433.88
2022-09-24T00:20:17.653Z,100428.78
2022-09-24T00:22:44.575Z,100429.28
2022-09-24T00:25:29.999Z,100424.69
2022-09-24T00:27:59.526Z,100411.81
2022-09-24T00:30:41.535Z,100418.81
2022-09-24T00:33:08.892Z,100420.44
2022-09-24T00:35:36.966Z,100420.66
2022-09-24T00:38:05.609Z,100419.84
2022-09-24T00:40:35.592Z,100411.72
2022-09-24T00:43:02.943Z,100405.81
2022-09-24T00:45:32.323Z,100407.22
2022-09-24T00:48:13.092Z,100401.09
2022-09-24T00:50:46.819Z,100403.34
2022-09-24T00:53:33.492Z,100400.50
2022-09-24T00:56:12.660Z,100397.41
2022-09-24T00:58:56.600Z,100380.75
2022-09-24T01:01:30.033Z,100382.84
2022-09-24T01:03:58.065Z,100378.16
2022-09-24T01:06:25.988Z,100369.09
2022-09-24T01:09:04.989Z,100368.66
2022-09-24T01:11:31.645Z,100368.41
2022-09-24T01:14:04.806Z,100368.66
2022-09-24T01:17:10.245Z,100371.88
2022-09-24T01:20:15.609Z,100374.84
2022-09-24T01:23:17.807Z,100367.63
2022-09-24T01:26:21.453Z,100365.00
2022-09-24T01:29:23.797Z,100362.41
2022-09-24T01:32:05.978Z,100367.91
2022-09-24T01:34:40.807Z,100370.13
2022-09-24T01:37:08.273Z,100362.09
2022-09-24T01:39:38.104Z,100358.28
2022-09-24T01:42:05.532Z,100350.28
2022-09-24T01:44:34.143Z,100353.84
2022-09-24T01:47:01.082Z,100348.66
2022-09-24T01:49:28.392Z,100354.00
2022-09-24T01:52:01.464Z,100357.22
2022-09-24T01:54:35.015Z,100352.91
2022-09-24T01:57:22.196Z,100348.34
2022-09-24T02:00:01.201Z,100343.78
2022-09-24T02:02:46.482Z,100336.84
2022-09-24T02:05:39.927Z,100326.16
2022-09-24T02:08:12.054Z,100335.72
2022-09-24T02:11:16.210Z,100320.69
2022-09-24T02:13:51.198Z,100338.28
2022-09-24T02:16:24.071Z,100334.56
2022-09-24T02:18:54.875Z,100328.91
2022-09-24T02:21:24.091Z,100334.59
2022-09-24T02:24:04.126Z,100339.44
2022-09-24T02:26:30.923Z,100342.72
2022-09-24T02:28:59.159Z,100354.56
2022-09-24T02:34:54.065Z,100341.16
2022-09-24T02:37:23.896Z,100336.91
2022-09-24T02:39:51.148Z,100330.47
2022-09-24T02:42:20.087Z,100347.72
2022-09-24T02:44:47.528Z,100338.53
2022-09-24T02:47:14.706Z,100341.25
2022-09-24T02:49:41.394Z,100340.72
2022-09-24T02:52:08.070Z,100342.88
2022-09-24T02:54:34.677Z,100340.50
2022-09-24T02:57:01.259Z,100345.63
2022-09-24T02:59:28.027Z,100340.81
2022-09-24T03:01:54.751Z,100335.44
2022-09-24T03:04:22.065Z,100327.34
2022-09-24T03:06:51.222Z,100336.75
2022-09-24T03:09:26.208Z,100339.75
2022-09-24T03:11:57.148Z,100335.50
2022-09-24T03:14:24.432Z,100333.34
2022-09-24T03:16:51.010Z,100329.06
2022-09-24T03:19:17.505Z,100327.47
2022-09-24T03:21:44.367Z,100330.72
2022-09-24T03:24:10.939Z,100327.53
2022-09-24T03:26:38.040Z,100320.03
2022-09-24T03:29:05.323Z,100316.00
2022-09-24T03:31:32.340Z,100320.03
2022-09-24T03:33:59.271Z,100317.88
2022-09-24T03:36:27.291Z,100314.34
2022-09-24T03:38:56.717Z,100305.50
2022-09-24T03:41:27.717Z,100296.63
2022-09-24T03:43:55.453Z,100303.91
2022-09-24T03:46:24.280Z,100296.09
2022-09-24T03:48:51.037Z,100298.00
2022-09-24T03:51:20.080Z,100305.00
2022-09-24T03:53:47.911Z,100298.00
2022-09-24T03:56:14.523Z,100299.06
2022-09-24T03:58:41.832Z,100300.69
2022-09-24T04:01:10.564Z,100304.44
2022-09-24T04:03:37.648Z,100305.81
2022-09-24T04:06:04.948Z,100312.53
2022-09-24T04:08:31.694Z,100317.91
2022-09-24T04:10:58.878Z,100313.66
2022-09-24T04:13:26.027Z,100305.03
2022-09-24T04:15:53.754Z,100307.72
2022-09-24T04:18:21.471Z,100311.22
2022-09-24T04:20:48.118Z,100297.50
2022-09-24T04:23:15.075Z,100295.88
2022-09-24T04:25:41.672Z,100296.41
2022-09-24T04:28:10.170Z,100296.94
2022-09-24T04:30:38.195Z,100289.97
2022-09-24T04:33:05.522Z,100289.44
2022-09-24T04:35:35.292Z,100285.66
2022-09-24T04:38:02.152Z,100291.59
2022-09-24T04:40:29.967Z,100296.72
2022-09-24T04:42:56.589Z,100296.97
2022-09-24T04:45:24.832Z,100297.50
2022-09-24T04:47:56.119Z,100298.03
2022-09-24T04:50:23.654Z,100302.31
2022-09-24T04:52:55.698Z,100293.72
2022-09-24T04:55:27.730Z,100297.53
2022-09-24T04:57:58.209Z,100289.47
2022-09-24T05:00:28.432Z,100289.25
2022-09-24T05:02:59.436Z,100289.56
2022-09-24T05:05:26.992Z,100289.78
2022-09-24T05:07:53.487Z,100288.97
2022-09-24T05:10:19.993Z,100293.22
2022-09-24T05:12:46.498Z,100296.94
2022-09-24T05:15:13.160Z,100302.00
2022-09-24T05:17:40.042Z,100293.94
2022-09-24T05:20:08.176Z,100302.25
2022-09-24T05:22:36.539Z,100306.53
2022-09-24T05:25:03.333Z,100301.97
2022-09-24T05:27:29.952Z,100297.38
2022-09-24T05:29:56.478Z,100296.84
2022-09-24T05:32:23.231Z,100301.66
2022-09-24T05:34:51.020Z,100312.97
2022-09-24T05:37:18.155Z,100318.81
2022-09-24T05:39:44.880Z,100308.56
2022-09-24T05:42:14.248Z,100309.88
2022-09-24T05:44:42.871Z,100311.22
2022-09-24T05:47:09.997Z,100321.13
2022-09-24T05:49:38.262Z,100313.31
2022-09-24T05:52:05.266Z,100311.66
2022-09-24T05:54:31.965Z,100312.72
2022-09-24T05:56:58.892Z,100313.50
2022-09-24T05:59:48.781Z,100320.16
2022-09-24T06:02:27.198Z,100315.81
2022-09-24T06:04:53.874Z,100319.59
2022-09-24T06:07:21.401Z,100324.09
2022-09-24T06:09:48.971Z,100323.72
2022-09-24T06:12:15.801Z,100329.03
2022-09-24T06:14:42.639Z,100317.63
2022-09-24T06:17:12.281Z,100322.44
2022-09-24T06:19:39.249Z,100326.19
2022-09-24T06:22:05.828Z,100327.19
2022-09-24T06:24:32.450Z,100323.91
2022-09-24T06:27:02.161Z,100322.50
2022-09-24T06:29:28.765Z,100327.06
2022-09-24T06:31:55.402Z,100326.28
2022-09-24T06:34:21.922Z,100327.97
2022-09-24T06:36:48.484Z,100329.34
2022-09-24T06:39:15.099Z,100335.78
2022-09-24T06:41:50.518Z,100340.06
2022-09-24T06:44:17.930Z,100335.13
2022-09-24T06:46:45.399Z,100334.91
2022-09-24T06:49:12.503Z,100331.91
2022-09-24T06:51:39.716Z,100328.09
2022-09-24T06:54:06.347Z,100337.16
2022-09-24T06:56:33.019Z,100344.38
2022-09-24T06:58:59.598Z,100348.59
2022-09-24T07:01:26.271Z,100347.06
2022-09-24T07:03:52.931Z,100347.06
2022-09-24T07:06:19.589Z,100350.84
2022-09-24T07:08:50.857Z,100349.91
2022-09-24T07:11:17.454Z,100356.56
2022-09-24T07:13:44.030Z,100349.28
2022-09-24T07:16:10.774Z,100354.97
2022-09-24T07:18:38.657Z,100349.16
2022-09-24T07:21:06.607Z,100346.03
2022-09-24T07:23:33.192Z,100356.63
2022-09-24T07:25:59.728Z,100367.31
2022-09-24T07:28:26.407Z,100366.53
2022-09-24T07:30:58.332Z,100358.94
2022-09-24T07:33:24.944Z,100366.53
2022-09-24T07:35:51.550Z,100352.50
2022-09-24T07:38:18.356Z,100362.31
2022-09-24T07:40:45.439Z,100368.34
2022-09-24T07:43:13.864Z,100360.59
2022-09-24T07:45:42.374Z,100369.00
2022-09-24T07:48:10.432Z,100369.53
2022-09-24T07:50:41.630Z,100370.66
2022-09-24T07:53:19.590Z,100356.09
2022-09-24T07:55:59.270Z,100358.69
2022-09-24T07:58:26.339Z,100358.47
2022-09-24T08:00:57.233Z,100361.03
2022-09-24T08:03:27.136Z,100360.19
2022-09-24T08:05:58.498Z,100356.38
2022-09-24T08:08:28.502Z,100355.09
2022-09-24T08:11:50.762Z,100345.72
2022-09-24T08:14:21.057Z,100353.88
2022-09-24T08:16:47.762Z,100365.00
2022-09-24T08:19:16.902Z,100359.25
2022-09-24T08:21:43.551Z,100359.16
2022-09-24T08:24:14.900Z,100357.91
2022-09-24T08:26:42.274Z,100352.47
2022-09-24T08:29:09.087Z,100364.53
2022-09-24T08:31:35.810Z,100364.94
2022-09-24T08:34:02.570Z,100360.69
2022-09-24T08:36:29.357Z,100363.00
2022-09-24T08:39:08.523Z,100357.88
2022-09-24T08:41:57.070Z,100363.63
2022-09-24T08:45:03.897Z,100370.53
2022-09-24T08:47:37.134Z,100367.53
2022-09-24T08:50:14.659Z,100369.50
2022-09-24T08:53:07.093Z,100363.75
2022-09-24T08:55:37.457Z,100373.84
2022-09-24T08:58:28.479Z,100370.69
2022-09-24T09:01:26.669Z,100369.56
2022-09-24T09:04:03.512Z,100366.59
2022-09-24T09:06:48.101Z,100369.97
2022-09-24T09:09:25.855Z,100373.22
2022-09-24T09:12:01.279Z,100364.66
2022-09-24T09:14:47.171Z,100375.06
2022-09-24T09:17:37.977Z,100378.38
2022-09-24T09:20:16.100Z,100377.09
2022-09-24T09:22:47.553Z,100365.09
2022-09-24T09:25:20.257Z,100359.00
2022-09-24T09:27:51.244Z,100367.00
2022-09-24T09:30:20.728Z,100367.56
2022-09-24T09:33:17.480Z,100367.28
2022-09-24T09:36:25.585Z,100357.44
2022-09-24T09:39:21.657Z,100352.69
2022-09-24T09:42:02.388Z,100355.84
2022-09-24T09:44:37.205Z,100362.22
2022-09-24T09:47:26.280Z,100365.22
2022-09-24T09:49:57.683Z,100364.09
2022-09-24T09:52:29.214Z,100364.84
2022-09-24T09:54:56.011Z,100373.53
2022-09-24T09:57:25.652Z,100377.38
2022-09-24T09:59:54.964Z,100374.38
2022-09-24T10:02:31.207Z,100365.94
2022-09-24T10:04:59.466Z,100362.59
2022-09-24T10:07:26.062Z,100364.75
2022-09-24T10:10:00.614Z,100352.72
2022-09-24T10:12:28.505Z,100359.41
2022-09-24T10:14:59.653Z,100351.28
2022-09-24T10:17:38.014Z,100358.63
2022-09-24T10:20:14.835Z,100361.41
2022-09-24T10:23:06.933Z,100354.09
2022-09-24T10:25:36.301Z,100349.03
2022-09-24T10:28:26.880Z,100350.28
2022-09-24T10:30:59.087Z,100351.59
2022-09-24T10:33:26.658Z,100351.03
2022-09-24T10:36:07.851Z,100347.25
2022-09-24T10:38:34.777Z,100351.59
2022-09-24T10:41:01.491Z,100341.00
2022-09-24T10:43:28.215Z,100331.66
2022-09-24T10:46:04.033Z,100330.22
2022-09-24T10:48:44.472Z,100321.28
2022-09-24T10:51:45.454Z,100325.97
2022-09-24T10:54:20.809Z,100329.63
2022-09-24T10:56:51.640Z,100319.88
2022-09-24T10:59:41.232Z,100322.16
2022-09-24T11:02:13.960Z,100316.53
2022-09-24T11:05:20.136Z,100313.47
2022-09-24T11:08:17.425Z,100317.16
2022-09-24T11:11:22.584Z,100324.03
2022-09-24T11:14:11.288Z,100325.59
2022-09-24T11:17:04.841Z,100326.97
2022-09-24T11:20:11.020Z,100331.47
2022-09-24T11:23:01.935Z,100337.47
2022-09-24T11:25:43.897Z,100335.22
2022-09-24T11:28:26.079Z,100330.19
2022-09-24T11:31:35.404Z,100331.97
2022-09-24T11:34:29.824Z,100328.94
2022-09-24T11:37:27.832Z,100318.28
2022-09-24T11:40:16.302Z,100316.06
2022-09-24T11:42:53.666Z,100316.38
2022-09-24T11:45:20.854Z,100308.47
2022-09-24T11:48:08.641Z,100303.63
2022-09-24T11:50:50.384Z,100313.31
2022-09-24T11:53:38.102Z,100306.44
2022-09-24T11:56:13.532Z,100308.91
2022-09-24T11:58:48.416Z,100304.22
2022-09-24T12:01:33.249Z,100292.16
2022-09-24T12:04:11.706Z,100289.19
2022-09-24T12:06:47.263Z,100292.56
2022-09-24T12:09:47.767Z,100289.22
2022-09-24T12:12:20.752Z,100284.13
2022-09-24T12:14:50.365Z,100273.84
2022-09-24T12:17:18.874Z,100266.91
2022-09-24T12:19:55.964Z,100265.19
2022-09-24T12:22:24.570Z,100260.38
2022-09-24T12:25:00.274Z,100260.34
2022-09-24T12:27:38.742Z,100256.28
2022-09-24T12:30:33.981Z,100251.44
2022-09-24T12:33:21.003Z,100260.44
2022-09-24T12:36:02.182Z,100264.44
2022-09-24T12:38:40.732Z,100258.97
2022-09-24T12:41:20.655Z,100266.25
2022-09-24T12:44:11.954Z,100271.31
2022-09-24T12:46:44.514Z,100261.22
2022-09-24T12:49:28.749Z,100256.28
2022-09-24T12:51:57.502Z,100250.72
2022-09-24T12:54:34.197Z,100261.41
2022-09-24T12:57:26.293Z,100251.06
2022-09-24T12:59:58.781Z,100254.13
2022-09-24T13:02:29.070Z,100265.63
2022-09-24T13:05:01.873Z,100263.03
2022-09-24T13:07:29.247Z,100250.25
2022-09-24T13:09:55.841Z,100247.09
2022-09-24T13:12:33.270Z,100250.72
2022-09-24T13:15:08.334Z,100254.78
2022-09-24T13:17:38.180Z,100249.31
2022-09-24T13:20:18.989Z,100249.56
2022-09-24T13:22:57.992Z,100258.69
2022-09-24T13:25:25.817Z,100245.25
2022-09-24T13:27:59.257Z,100247.31
2022-09-24T13:30:42.360Z,100249.13
2022-09-24T13:33:09.782Z,100259.69
2022-09-24T13:35:58.584Z,100251.63
2022-09-24T13:38:34.228Z,100250.47
2022-09-24T13:41:13.315Z,100246.81
2022-09-24T13:43:56.439Z,100249.44
2022-09-24T13:46:25.613Z,100237.75
2022-09-24T13:48:56.433Z,100240.44
2022-09-24T13:51:29.930Z,100242.03
2022-09-24T13:54:34.522Z,100237.06
2022-09-24T13:57:42.770Z,100245.75
2022-09-24T14:00:16.332Z,100246.09
2022-09-24T14:03:14.431Z,100244.91
2022-09-24T14:05:41.857Z,100243.00
2022-09-24T14:08:15.480Z,100242.66
2022-09-24T14:10:43.021Z,100238.91
2022-09-24T14:13:22.214Z,100243.31
2022-09-24T14:15:57.978Z,100234.66
2022-09-24T14:18:27.201Z,100227.78
2022-09-24T14:21:26.912Z,100231.19
2022-09-24T14:24:03.418Z,100224.31
2022-09-24T14:26:51.828Z,100221.94
2022-09-24T14:29:25.393Z,100222.59
2022-09-24T14:31:59.752Z,100222.19
2022-09-24T14:34:35.910Z,100226.06
2022-09-24T14:37:21.436Z,100221.97
2022-09-24T14:39:51.937Z,100222.22
2022-09-24T14:42:29.680Z,100220.28
2022-09-24T14:44:56.631Z,100230.44
2022-09-24T14:47:29.125Z,100215.72
2022-09-24T14:49:56.119Z,100213.63
2022-09-24T14:52:27.721Z,100215.41
2022-09-24T14:55:14.518Z,100207.59
2022-09-24T14:57:46.085Z,100205.41
2022-09-24T15:00:46.424Z,100203.75
2022-09-24T15:03:16.414Z,100204.44
2022-09-24T15:05:45.112Z,100198.53
2022-09-24T15:08:24.048Z,100198.47
2022-09-24T15:11:01.793Z,100201.97
2022-09-24T15:13:33.504Z,100198.41
2022-09-24T15:16:06.256Z,100205.50
2022-09-24T15:18:35.388Z,100216.22
2022-09-24T15:21:06.146Z,100206.78
2022-09-24T15:23:33.047Z,100203.53
2022-09-24T15:25:59.735Z,100196.78
2022-09-24T15:28:29.049Z,100196.56
2022-09-24T15:30:58.766Z,100195.75
2022-09-24T15:33:25.414Z,100193.97
2022-09-24T15:35:52.420Z,100194.44
2022-09-24T15:38:20.090Z,100189.66
2022-09-24T15:40:47.186Z,100189.84
2022-09-24T15:43:24.654Z,100189.25
2022-09-24T15:45:52.126Z,100202.88
2022-09-24T15:48:18.842Z,100202.91
2022-09-24T15:50:46.823Z,100194.50
2022-09-24T15:53:25.917Z,100195.16
2022-09-24T15:55:55.879Z,100197.63
2022-09-24T15:58:23.903Z,100204.31
2022-09-24T16:00:50.983Z,100198.25
2022-09-24T16:03:20.231Z,100202.25
2022-09-24T16:05:47.879Z,100198.09
2022-09-24T16:08:15.867Z,100198.09
2022-09-24T16:10:43.194Z,100200.50
2022-09-24T16:13:10.757Z,100195.88
2022-09-24T16:15:38.166Z,100198.41
2022-09-24T16:18:06.082Z,100197.31
2022-09-24T16:20:34.170Z,100198.09
2022-09-24T16:23:00.730Z,100200.81
2022-09-24T16:25:28.050Z,100201.63
2022-09-24T16:27:56.358Z,100207.66
2022-09-24T16:30:23.147Z,100204.66
2022-09-24T16:32:49.875Z,100201.28
2022-09-24T16:35:17.362Z,100204.47
2022-09-24T16:37:43.956Z,100208.94
2022-09-24T16:40:11.135Z,100206.41
2022-09-24T16:42:37.862Z,100223.66
2022-09-24T16:45:04.966Z,100218.88
2022-09-24T16:47:31.580Z,100229.88
2022-09-24T16:49:58.238Z,100228.59
2022-09-24T16:52:24.856Z,100236.75
2022-09-24T16:54:51.482Z,100234.19
2022-09-24T16:57:18.073Z,100234.81
2022-09-24T16:59:44.597Z,100244.53
2022-09-24T17:02:12.474Z,100246.75
2022-09-24T17:04:39.819Z,100247.16
2022-09-24T17:07:06.689Z,100260.19
2022-09-24T17:09:51.871Z,100255.47
2022-09-24T17:12:18.533Z,100279.38
2022-09-24T17:14:45.139Z,100285.22
2022-09-24T17:17:11.791Z,100303.16
2022-09-24T17:19:38.365Z,100306.34
2022-09-24T17:22:05.044Z,100294.50
2022-09-24T17:24:31.876Z,100284.22
2022-09-24T17:26:58.527Z,100290.75
2022-09-24T17:29:30.324Z,100280.16
2022-09-24T17:31:57.892Z,100295.38
2022-09-24T17:34:24.652Z,100290.88
2022-09-24T17:36:51.335Z,100300.88
2022-09-24T17:39:18.902Z,100294.84
2022-09-24T17:41:45.543Z,100290.44
2022-09-24T17:44:13.536Z,100291.47
2022-09-24T17:46:40.249Z,100291.47
2022-09-24T17:49:07.206Z,100286.59
2022-09-24T17:51:38.710Z,100284.41
2022-09-24T17:54:08.396Z,100293.88
2022-09-24T17:56:39.127Z,100280.72
2022-09-24T17:59:12.236Z,100273.09
2022-09-24T18:01:40.381Z,100279.56
2022-09-24T18:04:11.334Z,100289.00
2022-09-24T18:06:40.047Z,100283.81
2022-09-24T18:09:07.535Z,100282.47
2022-09-24T18:11:46.804Z,100283.19
2022-09-24T18:14:16.997Z,100279.69
2022-09-24T18:16:44.519Z,100276.72
2022-09-24T18:19:13.143Z,100277.28
2022-09-24T18:21:39.996Z,100269.69
2022-09-24T18:24:07.305Z,100270.44
2022-09-24T18:26:36.849Z,100270.88
2022-09-24T18:29:11.942Z,100271.28
2022-09-24T18:31:39.664Z,100271.41
2022-09-24T18:34:10.615Z,100273.78
2022-09-24T18:36:40.330Z,100275.28
2022-09-24T18:39:08.436Z,100280.41
2022-09-24T18:41:36.166Z,100279.31
2022-09-24T18:44:03.704Z,100277.28
2022-09-24T18:46:32.708Z,100278.00
2022-09-24T18:49:00.830Z,100277.94
2022-09-24T18:51:31.461Z,100273.53
2022-09-24T18:54:00.845Z,100275.72
2022-09-24T18:56:27.769Z,100272.75
2022-09-24T18:59:07.146Z,100272.94
2022-09-24T19:01:37.336Z,100272.94
2022-09-24T19:04:04.611Z,100267.53
2022-09-24T19:06:34.016Z,100270.75
2022-09-24T19:09:00.824Z,100262.97
2022-09-24T19:11:30.537Z,100270.34
2022-09-24T19:13:58.406Z,100272.44
2022-09-24T19:16:25.279Z,100278.34
2022-09-24T19:18:53.195Z,100297.63
2022-09-24T19:21:20.984Z,100306.09
2022-09-24T19:23:49.432Z,100324.94
2022-09-24T19:26:22.103Z,100337.13
2022-09-24T19:28:50.946Z,100341.16
2022-09-24T19:31:23.530Z,100362.59
2022-09-24T19:33:52.050Z,100384.19
2022-09-24T19:36:19.816Z,100372.19
2022-09-24T19:38:48.957Z,100380.34
2022-09-24T19:41:24.828Z,100376.72
2022-09-24T19:43:53.074Z,100381.47
2022-09-24T19:46:24.253Z,100390.19
2022-09-24T19:48:52.233Z,100388.13
2022-09-24T19:51:24.896Z,100377.69
2022-09-24T19:53:53.924Z,100380.22
2022-09-24T19:56:22.687Z,100377.84
2022-09-24T19:58:52.612Z,100387.34
2022-09-24T20:01:22.218Z,100389.84
2022-09-24T20:03:49.248Z,100388.63
2022-09-24T20:06:22.699Z,100385.53
2022-09-24T20:08:49.454Z,100379.09
2022-09-24T20:11:19.343Z,100375.06
2022-09-24T20:13:50.158Z,100372.69
2022-09-24T20:16:22.805Z,100368.34
2022-09-24T20:18:50.872Z,100365.13
2022-09-24T20:21:19.560Z,100362.50
2022-09-24T20:23:50.179Z,100374.97
2022-09-24T20:26:35.799Z,100380.91
2022-09-24T20:29:03.132Z,100387.41
2022-09-24T20:31:30.142Z,100388.72
2022-09-24T20:33:57.445Z,100388.72
2022-09-24T20:36:25.316Z,100390.09
2022-09-24T20:38:55.119Z,100382.53
2022-09-24T20:41:24.393Z,100383.59
2022-09-24T20:43:52.490Z,100376.66
2022-09-24T20:46:24.028Z,100374.81
2022-09-24T20:48:59.945Z,100377.47
2022-09-24T20:51:33.567Z,100378.97
2022-09-24T20:54:01.350Z,100375.41
2022-09-24T20:56:30.473Z,100371.06
2022-09-24T20:58:57.430Z,100367.03
2022-09-24T21:01:24.984Z,100374.84
2022-09-24T21:03:51.953Z,100376.94
2022-09-24T21:06:22.810Z,100372.50
2022-09-24T21:08:49.641Z,100374.56
2022-09-24T21:11:18.725Z,100365.88
2022-09-24T21:13:51.070Z,100366.19
2022-09-24T21:16:20.891Z,100369.44
2022-09-24T21:18:48.792Z,100365.34
2022-09-24T21:21:18.780Z,100370.72
2022-09-24T21:23:48.772Z,100370.63
2022-09-24T21:26:22.793Z,100370.63
2022-09-24T21:28:55.668Z,100371.50
2022-09-24T21:31:25.014Z,100367.50
2022-09-24T21:33:56.173Z,100365.31
2022-09-24T21:36:26.314Z,100372.03
2022-09-24T21:39:08.625Z,100364.16
2022-09-24T21:41:39.686Z,100355.56
2022-09-24T21:44:12.284Z,100355.56
2022-09-24T21:46:41.352Z,100359.31
2022-09-24T21:49:08.015Z,100351.75
2022-09-24T21:51:34.672Z,100351.19
2022-09-24T21:54:03.921Z,100353.81
2022-09-24T21:56:32.716Z,100359.44
2022-09-24T21:59:26.653Z,100362.38
2022-09-24T22:01:54.574Z,100352.41
2022-09-24T22:04:22.015Z,100354.31
2022-09-24T22:06:48.749Z,100351.63
2022-09-24T22:09:15.903Z,100353.94
2022-09-24T22:11:43.628Z,100345.41
2022-09-24T22:14:10.300Z,100343.59
2022-09-24T22:16:37.119Z,100347.44
2022-09-24T22:19:05.571Z,100351.06
2022-09-24T22:21:32.874Z,100346.53
2022-09-24T22:23:59.936Z,100353.53
2022-09-24T22:26:26.641Z,100351.88
2022-09-24T22:28:53.933Z,100351.34
2022-09-24T22:31:23.344Z,100354.88
2022-09-24T22:34:08.641Z,100347.81
2022-09-24T22:36:36.008Z,100350.28
2022-09-24T22:39:04.528Z,100351.88
2022-09-24T22:41:32.799Z,100343.78
2022-09-24T22:43:59.347Z,100339.91
2022-09-24T22:46:27.248Z,100342.56
2022-09-24T22:48:57.318Z,100336.56
2022-09-24T22:51:24.719Z,100345.78
2022-09-24T22:53:52.392Z,100339.13
2022-09-24T22:56:21.131Z,100338.56
2022-09-24T22:58:55.544Z,100344.97
2022-09-24T23:01:25.034Z,100352.22
2022-09-24T23:03:53.254Z,100350.59
2022-09-24T23:06:20.900Z,100349.50
2022-09-24T23:08:49.132Z,100353.81
2022-09-24T23:11:20.801Z,100353.81
2022-09-24T23:13:55.237Z,100344.97
2022-09-24T23:16:28.240Z,100350.94
2022-09-24T23:19:00.317Z,100350.16
2022-09-24T23:21:30.392Z,100345.81
2022-09-24T23:24:06.393Z,100347.50
2022-09-24T23:26:33.582Z,100347.50
2022-09-24T23:29:00.921Z,100348.00
2022-09-24T23:31:36.930Z,100343.66
2022-09-24T23:34:06.745Z,100345.53
2022-09-24T23:36:34.300Z,100346.66
2022-09-24T23:39:01.668Z,100350.16
2022-09-24T23:41:29.929Z,100353.41
2022-09-24T23:43:56.633Z,100352.69
2022-09-24T23:46:23.234Z,100351.66
2022-09-24T23:48:49.823Z,100353.16
2022-09-24T23:51:16.363Z,100345.97
2022-09-24T23:53:42.875Z,100346.38
2022-09-24T23:56:09.477Z,100345.75
2022-09-24T23:58:36.499Z,100347.22
